sensor_id;sensor_type;location;lat;lon;timestamp;P1;durP1;ratioP1;P2;durP2;ratioP2
18647;SDS011;9453;50.294;18.644;2023-07-13T04:02:36;10.48;;;5.25;;
18647;SDS011;9453;50.294;18.644;2023-07-13T04:05:03;11.88;;;5.57;;
18647;SDS011;9453;50.294;18.644;2023-07-13T04:07:31;11.30;;;5.18;;
18647;SDS011;9453;50.294;18.644;2023-07-13T04:09:58;10.38;;;5.03;;
18647;SDS011;9453;50.294;18.644;2023-07-13T04:12:25;8.68;;;5.32;;
18647;SDS011;9453;50.294;18.644;2023-07-13T04:14:52;7.93;;;4.13;;
18647;SDS011;9453;50.294;18.644;2023-07-13T04:17:19;5.18;;;3.33;;
18647;SDS011;9453;50.294;18.644;2023-07-13T04:19:48;5.25;;;3.80;;
18647;SDS011;9453;50.294;18.644;2023-07-13T04:22:15;6.78;;;4.40;;
18647;SDS011;9453;50.294;18.644;2023-07-13T04:24:42;5.93;;;3.67;;
18647;SDS011;9453;50.294;18.644;2023-07-13T04:27:09;5.35;;;3.42;;
18647;SDS011;9453;50.294;18.644;2023-07-13T04:29:36;6.57;;;4.10;;
18647;SDS011;9453;50.294;18.644;2023-07-13T04:32:03;6.03;;;3.70;;
18647;SDS011;9453;50.294;18.644;2023-07-13T04:34:31;5.75;;;3.38;;
18647;SDS011;9453;50.294;18.644;2023-07-13T04:37:01;6.10;;;3.88;;
18647;SDS011;9453;50.294;18.644;2023-07-13T04:39:29;8.30;;;4.10;;
18647;SDS011;9453;50.294;18.644;2023-07-13T04:41:56;5.60;;;3.53;;
18647;SDS011;9453;50.294;18.644;2023-07-13T04:44:23;6.65;;;4.47;;
18647;SDS011;9453;50.294;18.644;2023-07-13T04:46:50;8.32;;;4.70;;
18647;SDS011;9453;50.294;18.644;2023-07-13T04:49:17;5.50;;;4.22;;
18647;SDS011;9453;50.294;18.644;2023-07-13T04:51:44;5.88;;;4.03;;
18647;SDS011;9453;50.294;18.644;2023-07-13T04:54:12;8.43;;;5.07;;
18647;SDS011;9453;50.294;18.644;2023-07-13T04:56:39;7.25;;;3.97;;
18647;SDS011;9453;50.294;18.644;2023-07-13T04:59:06;5.47;;;3.90;;
18647;SDS011;9453;50.294;18.644;2023-07-13T05:01:33;7.28;;;3.88;;
18647;SDS011;9453;50.294;18.644;2023-07-13T05:04:00;5.50;;;3.83;;
18647;SDS011;9453;50.294;18.644;2023-07-13T05:06:27;7.65;;;4.40;;
18647;SDS011;9453;50.294;18.644;2023-07-13T05:08:55;6.15;;;4.28;;
18647;SDS011;9453;50.294;18.644;2023-07-13T05:11:24;6.47;;;4.40;;
18647;SDS011;9453;50.294;18.644;2023-07-13T05:13:51;5.00;;;3.58;;
18647;SDS011;9453;50.294;18.644;2023-07-13T05:16:18;9.80;;;5.40;;
18647;SDS011;9453;50.294;18.644;2023-07-13T05:18:45;8.85;;;5.13;;
18647;SDS011;9453;50.294;18.644;2023-07-13T05:21:12;5.97;;;3.70;;
18647;SDS011;9453;50.294;18.644;2023-07-13T05:23:39;7.40;;;4.28;;
18647;SDS011;9453;50.294;18.644;2023-07-13T05:26:08;5.85;;;3.40;;
18647;SDS011;9453;50.294;18.644;2023-07-13T05:28:37;7.95;;;5.43;;
18647;SDS011;9453;50.294;18.644;2023-07-13T05:31:04;7.40;;;4.40;;
18647;SDS011;9453;50.294;18.644;2023-07-13T05:33:33;7.07;;;4.18;;
18647;SDS011;9453;50.294;18.644;2023-07-13T05:36:00;7.32;;;4.35;;
18647;SDS011;9453;50.294;18.644;2023-07-13T05:38:28;9.95;;;5.85;;
18647;SDS011;9453;50.294;18.644;2023-07-13T05:40:55;9.70;;;4.78;;
18647;SDS011;9453;50.294;18.644;2023-07-13T05:43:23;8.90;;;4.47;;
18647;SDS011;9453;50.294;18.644;2023-07-13T05:45:53;9.18;;;5.97;;
18647;SDS011;9453;50.294;18.644;2023-07-13T05:48:20;7.13;;;4.90;;
18647;SDS011;9453;50.294;18.644;2023-07-13T05:50:47;7.10;;;4.38;;
18647;SDS011;9453;50.294;18.644;2023-07-13T05:53:15;9.43;;;4.63;;
18647;SDS011;9453;50.294;18.644;2023-07-13T05:55:42;6.20;;;4.13;;
18647;SDS011;9453;50.294;18.644;2023-07-13T05:58:10;5.70;;;3.47;;
18647;SDS011;9453;50.294;18.644;2023-07-13T06:00:38;9.02;;;4.43;;
18647;SDS011;9453;50.294;18.644;2023-07-13T06:03:06;7.07;;;3.63;;
18647;SDS011;9453;50.294;18.644;2023-07-13T06:05:33;5.72;;;3.70;;
18647;SDS011;9453;50.294;18.644;2023-07-13T06:08:01;4.72;;;3.28;;
18647;SDS011;9453;50.294;18.644;2023-07-13T06:10:29;8.32;;;3.40;;
18647;SDS011;9453;50.294;18.644;2023-07-13T06:12:58;7.43;;;4.50;;
18647;SDS011;9453;50.294;18.644;2023-07-13T06:15:25;5.00;;;3.38;;
18647;SDS011;9453;50.294;18.644;2023-07-13T06:17:52;7.47;;;3.88;;
18647;SDS011;9453;50.294;18.644;2023-07-13T06:20:21;5.93;;;3.85;;
18647;SDS011;9453;50.294;18.644;2023-07-13T06:22:47;9.73;;;3.80;;
18647;SDS011;9453;50.294;18.644;2023-07-13T06:25:14;4.45;;;3.25;;
18647;SDS011;9453;50.294;18.644;2023-07-13T06:27:42;5.40;;;3.45;;
18647;SDS011;9453;50.294;18.644;2023-07-13T06:30:10;5.68;;;3.22;;
18647;SDS011;9453;50.294;18.644;2023-07-13T06:32:37;4.93;;;3.05;;
18647;SDS011;9453;50.294;18.644;2023-07-13T06:35:05;7.10;;;3.13;;
18647;SDS011;9453;50.294;18.644;2023-07-13T06:37:34;3.83;;;2.90;;
18647;SDS011;9453;50.294;18.644;2023-07-13T06:40:01;6.40;;;3.08;;
18647;SDS011;9453;50.294;18.644;2023-07-13T06:42:29;4.60;;;3.20;;
18647;SDS011;9453;50.294;18.644;2023-07-13T06:44:56;12.80;;;4.50;;
18647;SDS011;9453;50.294;18.644;2023-07-13T06:47:23;5.68;;;3.70;;
18647;SDS011;9453;50.294;18.644;2023-07-13T06:49:50;8.65;;;4.00;;
18647;SDS011;9453;50.294;18.644;2023-07-13T06:52:17;10.35;;;5.07;;
18647;SDS011;9453;50.294;18.644;2023-07-13T06:54:45;8.98;;;5.43;;
18647;SDS011;9453;50.294;18.644;2023-07-13T06:57:12;8.65;;;5.20;;
18647;SDS011;9453;50.294;18.644;2023-07-13T06:59:39;7.00;;;4.47;;
18647;SDS011;9453;50.294;18.644;2023-07-13T07:02:07;6.18;;;4.88;;
18647;SDS011;9453;50.294;18.644;2023-07-13T07:04:35;9.23;;;5.10;;
18647;SDS011;9453;50.294;18.644;2023-07-13T07:07:02;6.13;;;4.10;;
18647;SDS011;9453;50.294;18.644;2023-07-13T07:09:30;9.35;;;5.63;;
18647;SDS011;9453;50.294;18.644;2023-07-13T07:11:58;7.10;;;4.32;;
18647;SDS011;9453;50.294;18.644;2023-07-13T07:14:25;10.98;;;6.20;;
18647;SDS011;9453;50.294;18.644;2023-07-13T07:16:52;13.88;;;6.25;;
18647;SDS011;9453;50.294;18.644;2023-07-13T07:19:19;8.73;;;5.32;;
18647;SDS011;9453;50.294;18.644;2023-07-13T07:21:46;13.52;;;6.55;;
18647;SDS011;9453;50.294;18.644;2023-07-13T07:24:13;10.80;;;5.30;;
18647;SDS011;9453;50.294;18.644;2023-07-13T07:26:40;9.23;;;5.10;;
18647;SDS011;9453;50.294;18.644;2023-07-13T07:29:09;11.75;;;5.55;;
18647;SDS011;9453;50.294;18.644;2023-07-13T07:31:35;7.47;;;5.10;;
18647;SDS011;9453;50.294;18.644;2023-07-13T07:34:03;11.30;;;5.55;;
18647;SDS011;9453;50.294;18.644;2023-07-13T07:36:30;8.27;;;4.55;;
18647;SDS011;9453;50.294;18.644;2023-07-13T07:38:57;8.95;;;4.90;;
18647;SDS011;9453;50.294;18.644;2023-07-13T07:41:24;9.10;;;4.72;;
18647;SDS011;9453;50.294;18.644;2023-07-13T07:43:51;9.48;;;4.55;;
18647;SDS011;9453;50.294;18.644;2023-07-13T07:46:19;9.80;;;4.25;;
18647;SDS011;9453;50.294;18.644;2023-07-13T07:48:46;10.20;;;4.60;;
18647;SDS011;9453;50.294;18.644;2023-07-13T07:51:13;8.02;;;5.40;;
18647;SDS011;9453;50.294;18.644;2023-07-13T07:53:40;8.70;;;5.13;;
18647;SDS011;9453;50.294;18.644;2023-07-13T07:56:07;10.02;;;5.15;;
18647;SDS011;9453;50.294;18.644;2023-07-13T07:58:35;6.20;;;4.68;;
18647;SDS011;9453;50.294;18.644;2023-07-13T08:01:02;8.68;;;4.25;;
18647;SDS011;9453;50.294;18.644;2023-07-13T08:03:32;8.02;;;4.72;;
18647;SDS011;9453;50.294;18.644;2023-07-13T08:05:58;4.68;;;3.70;;
18647;SDS011;9453;50.294;18.644;2023-07-13T08:08:25;8.95;;;4.80;;
18647;SDS011;9453;50.294;18.644;2023-07-13T08:10:52;9.43;;;5.53;;
18647;SDS011;9453;50.294;18.644;2023-07-13T08:13:19;9.18;;;5.30;;
18647;SDS011;9453;50.294;18.644;2023-07-13T08:15:46;11.27;;;4.90;;
18647;SDS011;9453;50.294;18.644;2023-07-13T08:18:14;8.73;;;5.03;;
18647;SDS011;9453;50.294;18.644;2023-07-13T08:20:43;8.55;;;5.63;;
18647;SDS011;9453;50.294;18.644;2023-07-13T08:23:10;8.32;;;4.85;;
18647;SDS011;9453;50.294;18.644;2023-07-13T08:25:37;8.15;;;4.28;;
18647;SDS011;9453;50.294;18.644;2023-07-13T08:28:04;12.27;;;4.53;;
18647;SDS011;9453;50.294;18.644;2023-07-13T08:30:31;6.72;;;4.55;;
18647;SDS011;9453;50.294;18.644;2023-07-13T08:32:58;11.07;;;5.22;;
18647;SDS011;9453;50.294;18.644;2023-07-13T08:35:25;10.07;;;4.25;;
18647;SDS011;9453;50.294;18.644;2023-07-13T08:37:53;8.82;;;5.18;;
18647;SDS011;9453;50.294;18.644;2023-07-13T08:40:23;16.70;;;5.22;;
18647;SDS011;9453;50.294;18.644;2023-07-13T08:42:53;10.30;;;5.93;;
18647;SDS011;9453;50.294;18.644;2023-07-13T08:45:22;10.13;;;5.25;;
18647;SDS011;9453;50.294;18.644;2023-07-13T08:47:57;9.15;;;5.82;;
18647;SDS011;9453;50.294;18.644;2023-07-13T08:50:31;9.07;;;5.80;;
18647;SDS011;9453;50.294;18.644;2023-07-13T08:53:03;13.57;;;6.05;;
18647;SDS011;9453;50.294;18.644;2023-07-13T08:55:31;11.65;;;5.10;;
18647;SDS011;9453;50.294;18.644;2023-07-13T08:58:09;12.55;;;4.88;;
18647;SDS011;9453;50.294;18.644;2023-07-13T09:00:40;9.45;;;5.03;;
18647;SDS011;9453;50.294;18.644;2023-07-13T09:03:16;10.95;;;4.25;;
18647;SDS011;9453;50.294;18.644;2023-07-13T09:05:48;14.93;;;4.78;;
18647;SDS011;9453;50.294;18.644;2023-07-13T09:08:27;7.53;;;4.47;;
18647;SDS011;9453;50.294;18.644;2023-07-13T09:11:07;8.65;;;4.65;;
18647;SDS011;9453;50.294;18.644;2023-07-13T09:13:49;7.00;;;4.10;;
18647;SDS011;9453;50.294;18.644;2023-07-13T09:16:21;13.27;;;4.65;;
18647;SDS011;9453;50.294;18.644;2023-07-13T09:18:49;10.48;;;4.30;;
18647;SDS011;9453;50.294;18.644;2023-07-13T09:21:21;6.53;;;3.70;;
18647;SDS011;9453;50.294;18.644;2023-07-13T09:26:25;7.55;;;2.80;;
18647;SDS011;9453;50.294;18.644;2023-07-13T09:28:57;4.72;;;2.97;;
18647;SDS011;9453;50.294;18.644;2023-07-13T09:31:26;3.60;;;2.70;;
18647;SDS011;9453;50.294;18.644;2023-07-13T09:33:58;9.43;;;2.92;;
18647;SDS011;9453;50.294;18.644;2023-07-13T09:36:27;6.47;;;2.75;;
18647;SDS011;9453;50.294;18.644;2023-07-13T09:38:58;13.85;;;3.53;;
18647;SDS011;9453;50.294;18.644;2023-07-13T09:41:32;7.85;;;3.53;;
18647;SDS011;9453;50.294;18.644;2023-07-13T09:44:07;11.65;;;4.15;;
18647;SDS011;9453;50.294;18.644;2023-07-13T09:46:36;12.68;;;4.00;;
18647;SDS011;9453;50.294;18.644;2023-07-13T09:49:04;10.60;;;4.07;;
18647;SDS011;9453;50.294;18.644;2023-07-13T09:51:31;9.98;;;5.32;;
18647;SDS011;9453;50.294;18.644;2023-07-13T09:53:59;9.23;;;4.85;;
18647;SDS011;9453;50.294;18.644;2023-07-13T09:56:28;11.60;;;4.63;;
18647;SDS011;9453;50.294;18.644;2023-07-13T09:58:56;17.98;;;4.95;;
18647;SDS011;9453;50.294;18.644;2023-07-13T10:01:34;15.43;;;5.20;;
18647;SDS011;9453;50.294;18.644;2023-07-13T10:04:10;18.38;;;5.70;;
18647;SDS011;9453;50.294;18.644;2023-07-13T10:06:39;21.75;;;6.07;;
18647;SDS011;9453;50.294;18.644;2023-07-13T10:09:09;11.40;;;5.47;;
18647;SDS011;9453;50.294;18.644;2023-07-13T10:11:39;15.30;;;5.07;;
18647;SDS011;9453;50.294;18.644;2023-07-13T10:14:10;19.95;;;5.95;;
18647;SDS011;9453;50.294;18.644;2023-07-13T10:16:41;26.80;;;5.03;;
18647;SDS011;9453;50.294;18.644;2023-07-13T10:19:11;26.17;;;5.38;;
18647;SDS011;9453;50.294;18.644;2023-07-13T10:21:43;33.47;;;5.63;;
18647;SDS011;9453;50.294;18.644;2023-07-13T10:24:19;25.90;;;5.90;;
18647;SDS011;9453;50.294;18.644;2023-07-13T10:26:48;28.90;;;5.60;;
18647;SDS011;9453;50.294;18.644;2023-07-13T10:29:20;14.40;;;5.10;;
18647;SDS011;9453;50.294;18.644;2023-07-13T10:31:51;15.18;;;5.90;;
18647;SDS011;9453;50.294;18.644;2023-07-13T10:34:18;15.95;;;6.55;;
18647;SDS011;9453;50.294;18.644;2023-07-13T10:36:46;33.90;;;9.68;;
18647;SDS011;9453;50.294;18.644;2023-07-13T10:39:15;37.30;;;11.27;;
18647;SDS011;9453;50.294;18.644;2023-07-13T10:41:46;34.95;;;11.05;;
18647;SDS011;9453;50.294;18.644;2023-07-13T10:44:21;36.50;;;9.60;;
18647;SDS011;9453;50.294;18.644;2023-07-13T10:46:54;44.53;;;12.93;;
18647;SDS011;9453;50.294;18.644;2023-07-13T10:49:25;20.83;;;6.90;;
18647;SDS011;9453;50.294;18.644;2023-07-13T10:51:54;14.98;;;5.05;;
18647;SDS011;9453;50.294;18.644;2023-07-13T10:54:22;19.98;;;6.38;;
18647;SDS011;9453;50.294;18.644;2023-07-13T10:57:08;19.30;;;6.90;;
18647;SDS011;9453;50.294;18.644;2023-07-13T10:59:42;17.58;;;6.63;;
18647;SDS011;9453;50.294;18.644;2023-07-13T11:02:15;14.65;;;5.60;;
18647;SDS011;9453;50.294;18.644;2023-07-13T11:04:49;15.57;;;5.60;;
18647;SDS011;9453;50.294;18.644;2023-07-13T11:07:21;12.90;;;4.85;;
18647;SDS011;9453;50.294;18.644;2023-07-13T11:09:50;12.13;;;4.75;;
18647;SDS011;9453;50.294;18.644;2023-07-13T11:15:27;12.10;;;4.90;;
18647;SDS011;9453;50.294;18.644;2023-07-13T11:18:18;14.88;;;4.95;;
18647;SDS011;9453;50.294;18.644;2023-07-13T11:20:47;14.25;;;6.05;;
18647;SDS011;9453;50.294;18.644;2023-07-13T11:23:28;16.58;;;6.53;;
18647;SDS011;9453;50.294;18.644;2023-07-13T11:25:57;14.30;;;5.43;;
18647;SDS011;9453;50.294;18.644;2023-07-13T11:28:29;11.50;;;6.97;;
18647;SDS011;9453;50.294;18.644;2023-07-13T11:31:02;13.23;;;6.32;;
18647;SDS011;9453;50.294;18.644;2023-07-13T11:33:53;8.88;;;5.20;;
18647;SDS011;9453;50.294;18.644;2023-07-13T11:36:24;7.00;;;3.70;;
18647;SDS011;9453;50.294;18.644;2023-07-13T11:38:58;8.20;;;3.70;;
18647;SDS011;9453;50.294;18.644;2023-07-13T11:41:29;6.90;;;3.20;;
18647;SDS011;9453;50.294;18.644;2023-07-13T11:44:05;5.38;;;3.05;;
18647;SDS011;9453;50.294;18.644;2023-07-13T11:46:37;4.95;;;2.75;;
18647;SDS011;9453;50.294;18.644;2023-07-13T11:49:04;6.78;;;3.00;;
18647;SDS011;9453;50.294;18.644;2023-07-13T11:51:33;5.10;;;3.17;;
18647;SDS011;9453;50.294;18.644;2023-07-13T11:54:03;5.25;;;3.30;;
18647;SDS011;9453;50.294;18.644;2023-07-13T11:56:33;4.40;;;3.13;;
18647;SDS011;9453;50.294;18.644;2023-07-13T11:59:06;4.25;;;2.92;;
18647;SDS011;9453;50.294;18.644;2023-07-13T12:01:34;4.00;;;2.75;;
18647;SDS011;9453;50.294;18.644;2023-07-13T12:04:08;3.33;;;2.42;;
18647;SDS011;9453;50.294;18.644;2023-07-13T12:06:47;3.72;;;2.72;;
18647;SDS011;9453;50.294;18.644;2023-07-13T12:09:21;6.68;;;3.85;;
18647;SDS011;9453;50.294;18.644;2023-07-13T12:11:50;5.68;;;3.33;;
18647;SDS011;9453;50.294;18.644;2023-07-13T12:14:20;3.78;;;2.80;;
18647;SDS011;9453;50.294;18.644;2023-07-13T12:16:50;3.95;;;2.70;;
18647;SDS011;9453;50.294;18.644;2023-07-13T12:19:18;10.52;;;3.20;;
18647;SDS011;9453;50.294;18.644;2023-07-13T12:21:47;3.13;;;2.50;;
18647;SDS011;9453;50.294;18.644;2023-07-13T12:24:16;4.43;;;3.03;;
18647;SDS011;9453;50.294;18.644;2023-07-13T12:26:46;4.63;;;3.15;;
18647;SDS011;9453;50.294;18.644;2023-07-13T12:29:17;4.18;;;2.72;;
18647;SDS011;9453;50.294;18.644;2023-07-13T12:31:47;4.80;;;3.05;;
18647;SDS011;9453;50.294;18.644;2023-07-13T12:34:17;4.75;;;3.40;;
18647;SDS011;9453;50.294;18.644;2023-07-13T12:36:46;3.97;;;3.03;;
18647;SDS011;9453;50.294;18.644;2023-07-13T12:39:16;4.35;;;2.85;;
18647;SDS011;9453;50.294;18.644;2023-07-13T12:41:46;3.70;;;2.40;;
18647;SDS011;9453;50.294;18.644;2023-07-13T12:44:15;2.65;;;1.92;;
18647;SDS011;9453;50.294;18.644;2023-07-13T12:46:53;5.53;;;2.63;;
18647;SDS011;9453;50.294;18.644;2023-07-13T12:49:24;4.07;;;2.33;;
18647;SDS011;9453;50.294;18.644;2023-07-13T12:51:57;4.40;;;2.40;;
18647;SDS011;9453;50.294;18.644;2023-07-13T12:54:26;2.10;;;1.88;;
18647;SDS011;9453;50.294;18.644;2023-07-13T12:56:54;5.93;;;1.65;;
18647;SDS011;9453;50.294;18.644;2023-07-13T12:59:23;2.50;;;1.80;;
18647;SDS011;9453;50.294;18.644;2023-07-13T13:01:57;3.40;;;1.50;;
18647;SDS011;9453;50.294;18.644;2023-07-13T13:04:25;2.83;;;1.70;;
18647;SDS011;9453;50.294;18.644;2023-07-13T13:07:00;1.70;;;1.60;;
18647;SDS011;9453;50.294;18.644;2023-07-13T13:09:29;2.50;;;1.75;;
18647;SDS011;9453;50.294;18.644;2023-07-13T13:11:55;2.45;;;1.70;;
18647;SDS011;9453;50.294;18.644;2023-07-13T13:14:23;4.00;;;1.80;;
18647;SDS011;9453;50.294;18.644;2023-07-13T13:16:50;3.30;;;1.90;;
18647;SDS011;9453;50.294;18.644;2023-07-13T13:19:21;2.42;;;1.50;;
18647;SDS011;9453;50.294;18.644;2023-07-13T13:21:50;3.28;;;2.05;;
18647;SDS011;9453;50.294;18.644;2023-07-13T13:24:18;1.98;;;1.63;;
18647;SDS011;9453;50.294;18.644;2023-07-13T13:26:48;4.75;;;1.98;;
18647;SDS011;9453;50.294;18.644;2023-07-13T13:29:16;3.45;;;2.45;;
18647;SDS011;9453;50.294;18.644;2023-07-13T13:31:44;2.40;;;2.03;;
18647;SDS011;9453;50.294;18.644;2023-07-13T13:34:12;3.63;;;2.05;;
18647;SDS011;9453;50.294;18.644;2023-07-13T13:36:41;2.75;;;2.03;;
18647;SDS011;9453;50.294;18.644;2023-07-13T13:39:15;2.70;;;2.13;;
18647;SDS011;9453;50.294;18.644;2023-07-13T13:41:46;2.38;;;2.00;;
18647;SDS011;9453;50.294;18.644;2023-07-13T13:44:14;2.90;;;2.20;;
18647;SDS011;9453;50.294;18.644;2023-07-13T13:46:42;3.50;;;2.00;;
18647;SDS011;9453;50.294;18.644;2023-07-13T13:49:12;3.70;;;2.20;;
18647;SDS011;9453;50.294;18.644;2023-07-13T13:51:43;3.67;;;1.85;;
18647;SDS011;9453;50.294;18.644;2023-07-13T13:54:11;6.03;;;2.20;;
18647;SDS011;9453;50.294;18.644;2023-07-13T13:56:41;5.05;;;2.17;;
18647;SDS011;9453;50.294;18.644;2023-07-13T13:59:08;3.03;;;2.03;;
18647;SDS011;9453;50.294;18.644;2023-07-13T14:01:36;3.95;;;2.20;;
18647;SDS011;9453;50.294;18.644;2023-07-13T14:04:05;3.58;;;2.13;;
18647;SDS011;9453;50.294;18.644;2023-07-13T14:06:33;2.55;;;1.90;;
18647;SDS011;9453;50.294;18.644;2023-07-13T14:09:02;5.15;;;2.17;;
18647;SDS011;9453;50.294;18.644;2023-07-13T14:11:29;3.22;;;2.50;;
18647;SDS011;9453;50.294;18.644;2023-07-13T14:13:58;5.10;;;2.60;;
18647;SDS011;9453;50.294;18.644;2023-07-13T14:16:28;4.63;;;2.70;;
18647;SDS011;9453;50.294;18.644;2023-07-13T14:18:58;3.75;;;2.80;;
18647;SDS011;9453;50.294;18.644;2023-07-13T14:21:26;3.50;;;2.67;;
18647;SDS011;9453;50.294;18.644;2023-07-13T14:23:55;4.85;;;3.47;;
18647;SDS011;9453;50.294;18.644;2023-07-13T14:26:25;4.78;;;3.83;;
18647;SDS011;9453;50.294;18.644;2023-07-13T14:28:53;6.45;;;4.03;;
18647;SDS011;9453;50.294;18.644;2023-07-13T14:31:22;4.40;;;3.33;;
18647;SDS011;9453;50.294;18.644;2023-07-13T14:33:51;4.90;;;3.38;;
18647;SDS011;9453;50.294;18.644;2023-07-13T14:36:39;3.88;;;2.50;;
18647;SDS011;9453;50.294;18.644;2023-07-13T14:39:10;5.55;;;3.28;;
18647;SDS011;9453;50.294;18.644;2023-07-13T14:41:43;3.30;;;2.88;;
18647;SDS011;9453;50.294;18.644;2023-07-13T14:44:12;4.63;;;2.92;;
18647;SDS011;9453;50.294;18.644;2023-07-13T14:46:40;3.75;;;2.85;;
18647;SDS011;9453;50.294;18.644;2023-07-13T14:49:12;3.15;;;2.60;;
18647;SDS011;9453;50.294;18.644;2023-07-13T14:51:42;6.45;;;2.70;;
18647;SDS011;9453;50.294;18.644;2023-07-13T14:54:09;6.65;;;2.97;;
18647;SDS011;9453;50.294;18.644;2023-07-13T14:56:37;5.38;;;3.10;;
18647;SDS011;9453;50.294;18.644;2023-07-13T14:59:05;3.67;;;2.55;;
18647;SDS011;9453;50.294;18.644;2023-07-13T15:01:33;6.25;;;3.40;;
18647;SDS011;9453;50.294;18.644;2023-07-13T15:04:01;4.28;;;2.35;;
18647;SDS011;9453;50.294;18.644;2023-07-13T15:06:29;3.03;;;2.53;;
18647;SDS011;9453;50.294;18.644;2023-07-13T15:08:57;3.40;;;2.72;;
18647;SDS011;9453;50.294;18.644;2023-07-13T15:11:24;5.55;;;2.35;;
18647;SDS011;9453;50.294;18.644;2023-07-13T15:13:51;3.95;;;2.60;;
18647;SDS011;9453;50.294;18.644;2023-07-13T15:16:21;4.00;;;2.67;;
18647;SDS011;9453;50.294;18.644;2023-07-13T15:18:52;2.75;;;2.08;;
18647;SDS011;9453;50.294;18.644;2023-07-13T15:21:20;3.35;;;1.98;;
18647;SDS011;9453;50.294;18.644;2023-07-13T15:23:48;2.47;;;1.70;;
18647;SDS011;9453;50.294;18.644;2023-07-13T15:26:17;2.20;;;1.67;;
18647;SDS011;9453;50.294;18.644;2023-07-13T15:28:45;3.55;;;1.70;;
18647;SDS011;9453;50.294;18.644;2023-07-13T15:31:18;2.25;;;1.30;;
18647;SDS011;9453;50.294;18.644;2023-07-13T15:33:49;1.95;;;1.60;;
18647;SDS011;9453;50.294;18.644;2023-07-13T15:36:17;1.50;;;1.40;;
18647;SDS011;9453;50.294;18.644;2023-07-13T15:38:44;1.60;;;1.50;;
18647;SDS011;9453;50.294;18.644;2023-07-13T15:41:19;2.17;;;1.55;;
18647;SDS011;9453;50.294;18.644;2023-07-13T15:43:48;2.97;;;1.52;;
18647;SDS011;9453;50.294;18.644;2023-07-13T15:46:17;2.25;;;1.48;;
18647;SDS011;9453;50.294;18.644;2023-07-13T15:48:47;2.55;;;1.60;;
18647;SDS011;9453;50.294;18.644;2023-07-13T15:51:18;2.53;;;1.50;;
18647;SDS011;9453;50.294;18.644;2023-07-13T15:53:48;2.63;;;1.42;;
18647;SDS011;9453;50.294;18.644;2023-07-13T15:56:17;3.75;;;1.17;;
18647;SDS011;9453;50.294;18.644;2023-07-13T15:58:47;1.80;;;1.40;;
18647;SDS011;9453;50.294;18.644;2023-07-13T16:01:14;2.63;;;1.63;;
18647;SDS011;9453;50.294;18.644;2023-07-13T16:03:42;3.05;;;1.35;;
18647;SDS011;9453;50.294;18.644;2023-07-13T16:06:12;1.98;;;1.50;;
18647;SDS011;9453;50.294;18.644;2023-07-13T16:08:42;1.70;;;1.30;;
18647;SDS011;9453;50.294;18.644;2023-07-13T16:11:15;2.53;;;1.70;;
18647;SDS011;9453;50.294;18.644;2023-07-13T16:13:45;1.60;;;1.40;;
18647;SDS011;9453;50.294;18.644;2023-07-13T16:16:13;3.80;;;1.70;;
18647;SDS011;9453;50.294;18.644;2023-07-13T16:18:41;2.28;;;1.45;;
18647;SDS011;9453;50.294;18.644;2023-07-13T16:21:10;1.90;;;1.23;;
18647;SDS011;9453;50.294;18.644;2023-07-13T16:23:40;2.30;;;1.60;;
18647;SDS011;9453;50.294;18.644;2023-07-13T16:26:16;2.45;;;1.40;;
18647;SDS011;9453;50.294;18.644;2023-07-13T16:28:53;1.63;;;1.35;;
18647;SDS011;9453;50.294;18.644;2023-07-13T16:31:26;2.05;;;1.50;;
18647;SDS011;9453;50.294;18.644;2023-07-13T16:33:56;1.40;;;1.30;;
18647;SDS011;9453;50.294;18.644;2023-07-13T16:36:25;1.65;;;1.27;;
18647;SDS011;9453;50.294;18.644;2023-07-13T16:38:53;1.98;;;1.52;;
18647;SDS011;9453;50.294;18.644;2023-07-13T16:41:20;1.48;;;1.38;;
18647;SDS011;9453;50.294;18.644;2023-07-13T16:43:48;2.05;;;1.42;;
18647;SDS011;9453;50.294;18.644;2023-07-13T16:46:17;1.50;;;1.40;;
18647;SDS011;9453;50.294;18.644;2023-07-13T16:48:47;1.98;;;1.50;;
18647;SDS011;9453;50.294;18.644;2023-07-13T16:51:14;2.65;;;1.40;;
18647;SDS011;9453;50.294;18.644;2023-07-13T16:53:42;1.52;;;1.40;;
18647;SDS011;9453;50.294;18.644;2023-07-13T16:56:12;2.22;;;1.42;;
18647;SDS011;9453;50.294;18.644;2023-07-13T16:58:41;1.95;;;1.40;;
18647;SDS011;9453;50.294;18.644;2023-07-13T17:01:09;2.58;;;1.40;;
18647;SDS011;9453;50.294;18.644;2023-07-13T17:03:36;3.05;;;1.70;;
18647;SDS011;9453;50.294;18.644;2023-07-13T17:06:13;1.95;;;1.50;;
18647;SDS011;9453;50.294;18.644;2023-07-13T17:08:53;2.22;;;1.70;;
18647;SDS011;9453;50.294;18.644;2023-07-13T17:11:20;5.90;;;2.05;;
18647;SDS011;9453;50.294;18.644;2023-07-13T17:13:51;4.20;;;1.45;;
18647;SDS011;9453;50.294;18.644;2023-07-13T17:16:19;1.60;;;1.40;;
18647;SDS011;9453;50.294;18.644;2023-07-13T17:18:49;1.77;;;1.27;;
18647;SDS011;9453;50.294;18.644;2023-07-13T17:21:17;1.85;;;1.50;;
18647;SDS011;9453;50.294;18.644;2023-07-13T17:23:44;1.98;;;1.30;;
18647;SDS011;9453;50.294;18.644;2023-07-13T17:26:13;1.75;;;1.13;;
18647;SDS011;9453;50.294;18.644;2023-07-13T17:28:40;1.38;;;1.10;;
18647;SDS011;9453;50.294;18.644;2023-07-13T17:31:09;1.75;;;1.30;;
18647;SDS011;9453;50.294;18.644;2023-07-13T17:33:43;1.88;;;1.30;;
18647;SDS011;9453;50.294;18.644;2023-07-13T17:36:13;1.83;;;1.27;;
18647;SDS011;9453;50.294;18.644;2023-07-13T17:38:42;1.23;;;1.13;;
18647;SDS011;9453;50.294;18.644;2023-07-13T17:41:16;2.53;;;1.38;;
18647;SDS011;9453;50.294;18.644;2023-07-13T17:43:44;1.40;;;1.30;;
18647;SDS011;9453;50.294;18.644;2023-07-13T17:46:12;2.25;;;1.70;;
18647;SDS011;9453;50.294;18.644;2023-07-13T17:48:41;1.48;;;1.10;;
18647;SDS011;9453;50.294;18.644;2023-07-13T17:51:13;1.30;;;1.20;;
18647;SDS011;9453;50.294;18.644;2023-07-13T17:53:41;1.73;;;1.25;;
18647;SDS011;9453;50.294;18.644;2023-07-13T17:56:09;1.60;;;1.33;;
18647;SDS011;9453;50.294;18.644;2023-07-13T17:58:38;2.10;;;1.40;;
18647;SDS011;9453;50.294;18.644;2023-07-13T18:01:08;2.75;;;1.38;;
18647;SDS011;9453;50.294;18.644;2023-07-13T18:03:38;2.70;;;1.35;;
18647;SDS011;9453;50.294;18.644;2023-07-13T18:06:10;2.28;;;1.25;;
18647;SDS011;9453;50.294;18.644;2023-07-13T18:08:44;1.63;;;1.23;;
18647;SDS011;9453;50.294;18.644;2023-07-13T18:11:13;1.40;;;1.30;;
18647;SDS011;9453;50.294;18.644;2023-07-13T18:13:41;1.83;;;1.50;;
18647;SDS011;9453;50.294;18.644;2023-07-13T18:16:11;1.85;;;1.50;;
18647;SDS011;9453;50.294;18.644;2023-07-13T18:18:41;2.17;;;1.63;;
18647;SDS011;9453;50.294;18.644;2023-07-13T18:21:09;1.30;;;1.15;;
18647;SDS011;9453;50.294;18.644;2023-07-13T18:23:36;3.35;;;1.40;;
18647;SDS011;9453;50.294;18.644;2023-07-13T18:26:04;1.20;;;1.10;;
18647;SDS011;9453;50.294;18.644;2023-07-13T18:28:35;2.40;;;1.38;;
18647;SDS011;9453;50.294;18.644;2023-07-13T18:31:04;1.80;;;1.35;;
18647;SDS011;9453;50.294;18.644;2023-07-13T18:33:34;1.45;;;1.20;;
18647;SDS011;9453;50.294;18.644;2023-07-13T18:36:03;1.30;;;1.20;;
18647;SDS011;9453;50.294;18.644;2023-07-13T18:38:32;1.48;;;1.23;;
18647;SDS011;9453;50.294;18.644;2023-07-13T18:41:00;2.75;;;1.17;;
18647;SDS011;9453;50.294;18.644;2023-07-13T18:43:27;2.42;;;1.48;;
18647;SDS011;9453;50.294;18.644;2023-07-13T18:45:55;1.30;;;1.20;;
18647;SDS011;9453;50.294;18.644;2023-07-13T18:48:27;1.50;;;1.30;;
18647;SDS011;9453;50.294;18.644;2023-07-13T18:50:58;1.65;;;1.20;;
18647;SDS011;9453;50.294;18.644;2023-07-13T18:53:25;1.60;;;1.40;;
18647;SDS011;9453;50.294;18.644;2023-07-13T18:55:52;2.60;;;1.50;;
18647;SDS011;9453;50.294;18.644;2023-07-13T18:58:19;2.05;;;1.52;;
18647;SDS011;9453;50.294;18.644;2023-07-13T19:00:47;1.70;;;1.50;;
18647;SDS011;9453;50.294;18.644;2023-07-13T19:03:22;1.83;;;1.60;;
18647;SDS011;9453;50.294;18.644;2023-07-13T19:05:56;3.22;;;1.98;;